Time;durP1;ratioP1;P1;durP2;ratioP2;P2;SDS_P1;SDS_P2;PMS_P1;PMS_P2;Temp;Humidity;BMP_temperature;BMP_pressure;BME280_temperature;BME280_humidity;BME280_pressure;Samples;Min_cycle;Max_cycle;Signal;HPM_P1;HPM_P2
2022/12/22 03:27:39;;;;;;;34.28;22.05;;;;;;;;;;5053848;28;20055;-78
2022/12/22 03:30:05;;;;;;;45.15;27.05;;;;;;;;;;5053663;28;20031;-77
2022/12/22 03:32:31;;;;;;;67.85;39.97;;;;;;;;;;5053801;28;20017;-79
2022/12/22 03:34:57;;;;;;;58.53;37.30;;;;;;;;;;5035749;28;20448;-78
2022/12/22 03:37:23;;;;;;;40.35;23.83;;;;;;;;;;5053477;28;20033;-78
2022/12/22 03:39:49;;;;;;;47.65;26.42;;;;;;;;;;5053340;28;20017;-79
2022/12/22 03:47:45;;;;;;;29.10;18.75;;;;;;;;;;5053722;28;20048;-78
2022/12/22 03:50:11;;;;;;;29.67;17.02;;;;;;;;;;5053365;28;20571;-78
2022/12/22 03:52:37;;;;;;;29.05;18.83;;;;;;;;;;5053126;28;20052;-79
2022/12/22 03:55:03;;;;;;;40.22;23.05;;;;;;;;;;5053108;28;20086;-78
2022/12/22 03:57:29;;;;;;;54.85;35.78;;;;;;;;;;5053016;28;20025;-79
2022/12/22 03:59:55;;;;;;;57.83;34.58;;;;;;;;;;5053059;28;20029;-77
2022/12/22 04:02:21;;;;;;;51.60;33.45;;;;;;;;;;5052977;28;20028;-78
2022/12/22 04:04:47;;;;;;;59.13;36.63;;;;;;;;;;5052883;28;20017;-78
2022/12/22 04:07:13;;;;;;;66.20;39.78;;;;;;;;;;5053069;28;20025;-78
2022/12/22 04:12:53;;;;;;;57.33;35.47;;;;;;;;;;5052749;28;20047;-78
2022/12/22 04:15:14;;;;;;;49.80;30.50;;;;;;;;;;5047167;28;20032;-77
2022/12/22 04:17:40;;;;;;;50.10;30.98;;;;;;;;;;5052900;28;20021;-77
2022/12/22 04:20:07;;;;;;;45.78;27.88;;;;;;;;;;5052195;28;20103;-77
2022/12/22 04:22:33;;;;;;;43.08;25.52;;;;;;;;;;5052684;28;20092;-78
2022/12/22 04:24:59;;;;;;;42.85;27.58;;;;;;;;;;5052527;28;20032;-77
2022/12/22 04:27:25;;;;;;;43.97;27.20;;;;;;;;;;5052584;28;20104;-78
2022/12/22 04:29:51;;;;;;;47.17;27.52;;;;;;;;;;5052661;28;20484;-79
2022/12/22 04:32:17;;;;;;;29.80;18.35;;;;;;;;;;5052141;28;20474;-78
2022/12/22 04:34:43;;;;;;;26.55;17.33;;;;;;;;;;5052677;28;20099;-77
2022/12/22 04:37:09;;;;;;;26.52;16.38;;;;;;;;;;5052271;28;20021;-77
2022/12/22 04:39:35;;;;;;;30.80;19.15;;;;;;;;;;5052531;28;20024;-78
2022/12/22 04:42:01;;;;;;;27.42;15.52;;;;;;;;;;5052430;28;20025;-78
2022/12/22 04:44:28;;;;;;;21.90;14.18;;;;;;;;;;5051840;28;20044;-78
2022/12/22 04:46:54;;;;;;;22.23;14.00;;;;;;;;;;5052395;28;20025;-78
2022/12/22 04:49:20;;;;;;;31.45;21.73;;;;;;;;;;5052167;28;20477;-77
2022/12/22 04:51:46;;;;;;;50.38;31.23;;;;;;;;;;5052119;28;20029;-77
2022/12/22 04:54:12;;;;;;;32.95;20.98;;;;;;;;;;5051921;28;20082;-78
2022/12/22 04:56:38;;;;;;;22.83;14.90;;;;;;;;;;5052137;28;20032;-77
2022/12/22 04:59:04;;;;;;;24.55;16.27;;;;;;;;;;5051783;28;20021;-78
2022/12/22 05:01:30;;;;;;;35.25;23.17;;;;;;;;;;5051947;28;20021;-77
2022/12/22 05:03:56;;;;;;;47.92;27.10;;;;;;;;;;5051748;28;20104;-78
2022/12/22 05:06:22;;;;;;;61.85;32.30;;;;;;;;;;5067740;28;20041;-77
2022/12/22 05:08:48;;;;;;;69.20;38.13;;;;;;;;;;5072083;28;20023;-79
2022/12/22 05:11:14;;;;;;;72.90;44.35;;;;;;;;;;5071770;28;20415;-78
2022/12/22 05:13:40;;;;;;;71.72;41.97;;;;;;;;;;5073156;28;20030;-79
2022/12/22 05:16:13;;;;;;;66.38;36.58;;;;;;;;;;5092215;28;20031;-80
2022/12/22 05:18:40;;;;;;;56.17;32.38;;;;;;;;;;5091381;28;20448;-78
2022/12/22 05:21:07;;;;;;;74.32;38.83;;;;;;;;;;5091683;28;20082;-79
2022/12/22 05:23:33;;;;;;;88.22;47.00;;;;;;;;;;5091860;28;20016;-78
2022/12/22 05:25:59;;;;;;;94.40;53.20;;;;;;;;;;5092075;28;20024;-79
2022/12/22 05:28:25;;;;;;;65.20;37.10;;;;;;;;;;5089692;28;20028;-78
2022/12/22 05:30:53;;;;;;;66.72;39.05;;;;;;;;;;5091739;28;20028;-79
2022/12/22 05:33:20;;;;;;;60.53;34.33;;;;;;;;;;5086249;28;20123;-77
2022/12/22 05:35:46;;;;;;;63.53;38.30;;;;;;;;;;5074447;28;20047;-78
2022/12/22 05:38:12;;;;;;;90.22;50.47;;;;;;;;;;5072106;28;20024;-78
2022/12/22 05:40:38;;;;;;;130.00;73.55;;;;;;;;;;5074606;28;20074;-78
2022/12/22 05:43:04;;;;;;;111.50;66.93;;;;;;;;;;5074414;28;20024;-79
2022/12/22 05:45:30;;;;;;;64.65;37.65;;;;;;;;;;5068531;28;20515;-78
2022/12/22 05:47:56;;;;;;;71.50;40.08;;;;;;;;;;5055572;28;20021;-76
2022/12/22 05:50:24;;;;;;;63.15;38.33;;;;;;;;;;5050946;28;20484;-78
2022/12/22 05:52:50;;;;;;;57.38;36.92;;;;;;;;;;5035665;28;20088;-78
2022/12/22 05:55:16;;;;;;;62.35;40.83;;;;;;;;;;5035537;28;20025;-77
2022/12/22 05:57:42;;;;;;;81.53;48.00;;;;;;;;;;5047832;28;20044;-77
2022/12/22 06:00:11;;;;;;;81.28;46.67;;;;;;;;;;5055614;28;20036;-78
2022/12/22 06:02:37;;;;;;;78.70;43.83;;;;;;;;;;5054984;28;20036;-78
2022/12/22 06:05:03;;;;;;;70.22;39.33;;;;;;;;;;5056006;28;20082;-77
2022/12/22 06:07:30;;;;;;;67.38;40.10;;;;;;;;;;5054806;28;20025;-77
2022/12/22 06:09:56;;;;;;;59.45;34.47;;;;;;;;;;5054770;28;20021;-79
2022/12/22 06:12:22;;;;;;;51.47;31.70;;;;;;;;;;5054565;28;20460;-77
2022/12/22 06:14:48;;;;;;;44.90;28.67;;;;;;;;;;5060162;28;20044;-78
2022/12/22 06:17:14;;;;;;;41.60;24.75;;;;;;;;;;5060701;28;20419;-77
2022/12/22 06:19:40;;;;;;;38.75;22.13;;;;;;;;;;5071471;28;20516;-77
2022/12/22 06:22:06;;;;;;;35.65;21.17;;;;;;;;;;5063766;28;20029;-78
2022/12/22 06:24:32;;;;;;;37.60;20.75;;;;;;;;;;5054022;28;20029;-78
2022/12/22 06:27:01;;;;;;;43.20;20.77;;;;;;;;;;5054357;28;20029;-79
2022/12/22 06:29:28;;;;;;;46.55;24.65;;;;;;;;;;5059588;28;20044;-78
2022/12/22 06:31:54;;;;;;;40.72;23.25;;;;;;;;;;5050558;28;20041;-78
2022/12/22 06:34:20;;;;;;;48.05;30.85;;;;;;;;;;5055505;28;20068;-79
2022/12/22 06:36:47;;;;;;;43.67;26.17;;;;;;;;;;5055178;28;20022;-79
2022/12/22 06:39:14;;;;;;;42.05;25.70;;;;;;;;;;5060344;28;20029;-79
2022/12/22 06:44:26;;;;;;;49.10;29.00;;;;;;;;;;5053528;28;20044;-80
2022/12/22 06:46:52;;;;;;;53.88;33.42;;;;;;;;;;5090635;28;20028;-78
2022/12/22 06:49:19;;;;;;;49.15;32.17;;;;;;;;;;5094796;28;20021;-79
2022/12/22 06:51:45;;;;;;;137.38;82.85;;;;;;;;;;5085258;28;20024;-79
2022/12/22 06:54:11;;;;;;;135.48;79.15;;;;;;;;;;5072783;28;20044;-80
2022/12/22 06:56:37;;;;;;;218.80;109.28;;;;;;;;;;5074622;28;20081;-79
2022/12/22 06:59:03;;;;;;;213.77;108.60;;;;;;;;;;5085296;28;20064;-80
2022/12/22 07:01:29;;;;;;;201.73;105.03;;;;;;;;;;5072377;28;20032;-79
2022/12/22 07:03:55;;;;;;;155.88;87.32;;;;;;;;;;5072715;28;20028;-79
2022/12/22 07:06:22;;;;;;;139.25;76.55;;;;;;;;;;5073933;28;20024;-78
2022/12/22 07:08:48;;;;;;;128.43;70.40;;;;;;;;;;5073380;28;20107;-81
2022/12/22 07:11:15;;;;;;;125.80;69.53;;;;;;;;;;5087686;28;20091;-80
2022/12/22 07:13:41;;;;;;;120.10;70.93;;;;;;;;;;5093538;28;20062;-79
2022/12/22 07:16:08;;;;;;;113.53;68.85;;;;;;;;;;5078907;28;20119;-78
2022/12/22 07:18:38;;;;;;;102.47;62.17;;;;;;;;;;5073152;28;20038;-82
2022/12/22 07:21:05;;;;;;;96.18;58.92;;;;;;;;;;5062256;28;20104;-82
2022/12/22 07:23:32;;;;;;;96.35;67.72;;;;;;;;;;5068684;28;20025;-78
2022/12/22 07:25:59;;;;;;;86.05;56.60;;;;;;;;;;5069643;28;20016;-80
2022/12/22 07:28:25;;;;;;;90.55;59.95;;;;;;;;;;5071889;28;20047;-79
2022/12/22 07:30:52;;;;;;;63.33;42.67;;;;;;;;;;5071954;28;20036;-80
2022/12/22 07:33:18;;;;;;;58.10;35.80;;;;;;;;;;5053625;28;20506;-78
2022/12/22 07:35:44;;;;;;;77.53;43.65;;;;;;;;;;5072291;28;20024;-80
2022/12/22 07:38:10;;;;;;;78.07;46.97;;;;;;;;;;5072784;28;20150;-81
2022/12/22 07:40:36;;;;;;;78.28;48.85;;;;;;;;;;5066467;28;20396;-81
2022/12/22 07:43:02;;;;;;;81.22;47.10;;;;;;;;;;5072825;28;20046;-79
2022/12/22 07:45:29;;;;;;;98.28;54.65;;;;;;;;;;5072215;28;20057;-80
2022/12/22 07:51:01;;;;;;;87.20;51.13;;;;;;;;;;5074575;28;20039;-81
2022/12/22 07:53:30;;;;;;;105.13;51.25;;;;;;;;;;5071767;28;20135;-80
2022/12/22 07:55:56;;;;;;;93.05;46.60;;;;;;;;;;5070680;28;20025;-80
2022/12/22 07:58:22;;;;;;;85.63;45.92;;;;;;;;;;5053387;28;20044;-81
2022/12/22 08:00:48;;;;;;;85.40;43.30;;;;;;;;;;5071914;28;20031;-81
2022/12/22 08:03:14;;;;;;;112.28;51.10;;;;;;;;;;5080759;28;20051;-81
2022/12/22 08:05:40;;;;;;;100.28;51.85;;;;;;;;;;5069200;28;20055;-77
2022/12/22 08:08:06;;;;;;;132.88;71.22;;;;;;;;;;5070878;28;20032;-79
2022/12/22 08:10:32;;;;;;;194.68;111.35;;;;;;;;;;5055415;28;20121;-81
2022/12/22 08:12:59;;;;;;;191.70;117.20;;;;;;;;;;5054978;28;20436;-82
2022/12/22 08:15:25;;;;;;;179.02;105.55;;;;;;;;;;5051852;28;20044;-81
2022/12/22 08:17:51;;;;;;;149.40;84.03;;;;;;;;;;5059853;28;20030;-79
2022/12/22 08:20:17;;;;;;;168.15;91.85;;;;;;;;;;5068690;28;20031;-79
2022/12/22 08:22:43;;;;;;;166.40;80.63;;;;;;;;;;5071500;28;20032;-79
2022/12/22 08:25:09;;;;;;;144.18;80.85;;;;;;;;;;5071862;28;20028;-81
2022/12/22 08:27:42;;;;;;;145.43;79.28;;;;;;;;;;5081720;28;20089;-79
2022/12/22 08:30:09;;;;;;;155.30;82.05;;;;;;;;;;5071004;28;20036;-81
2022/12/22 08:32:39;;;;;;;145.10;80.38;;;;;;;;;;5070166;28;20108;-80
2022/12/22 08:35:06;;;;;;;134.27;67.28;;;;;;;;;;5069017;28;20044;-82
2022/12/22 08:37:39;;;;;;;138.63;71.80;;;;;;;;;;5063011;28;20056;-79
2022/12/22 08:40:07;;;;;;;138.68;76.35;;;;;;;;;;5071215;28;20016;-81
2022/12/22 08:42:34;;;;;;;126.20;73.07;;;;;;;;;;5069243;28;20131;-82
2022/12/22 08:45:00;;;;;;;114.13;62.03;;;;;;;;;;5068029;28;20496;-82
2022/12/22 08:47:26;;;;;;;104.40;56.33;;;;;;;;;;5071446;28;20017;-81
2022/12/22 08:49:52;;;;;;;108.15;62.97;;;;;;;;;;5065569;28;20031;-79
2022/12/22 08:52:18;;;;;;;101.63;59.13;;;;;;;;;;5063830;28;20369;-82
2022/12/22 08:54:44;;;;;;;102.68;60.05;;;;;;;;;;5071007;28;20112;-83
2022/12/22 08:57:11;;;;;;;109.90;58.25;;;;;;;;;;5069533;28;20025;-83
2022/12/22 08:59:37;;;;;;;90.80;48.65;;;;;;;;;;5052401;28;20119;-83
2022/12/22 09:02:04;;;;;;;109.88;53.03;;;;;;;;;;5070387;28;20120;-82
2022/12/22 09:04:31;;;;;;;91.88;43.88;;;;;;;;;;5070818;28;20017;-83
2022/12/22 09:06:58;;;;;;;84.00;42.35;;;;;;;;;;5054871;28;20383;-81
2022/12/22 09:09:25;;;;;;;101.18;44.63;;;;;;;;;;5055049;28;20520;-82
2022/12/22 09:11:51;;;;;;;104.80;48.00;;;;;;;;;;5076393;28;20033;-79
2022/12/22 09:14:17;;;;;;;73.18;39.67;;;;;;;;;;5068696;28;20071;-82
2022/12/22 09:16:43;;;;;;;118.10;50.13;;;;;;;;;;5074186;28;20428;-77
2022/12/22 09:19:10;;;;;;;73.03;36.15;;;;;;;;;;5081792;28;20020;-78
2022/12/22 09:21:36;;;;;;;73.07;38.80;;;;;;;;;;5070060;28;20409;-79
2022/12/22 09:24:03;;;;;;;146.73;54.13;;;;;;;;;;5055392;28;20067;-80
2022/12/22 09:26:29;;;;;;;95.38;41.67;;;;;;;;;;5056476;28;20027;-81
2022/12/22 09:28:56;;;;;;;57.88;31.70;;;;;;;;;;5074898;28;20052;-82
2022/12/22 09:31:24;;;;;;;68.43;35.95;;;;;;;;;;5057416;28;20046;-86
2022/12/22 09:33:50;;;;;;;63.15;30.73;;;;;;;;;;5071719;28;20380;-85
2022/12/22 09:36:18;;;;;;;72.22;35.30;;;;;;;;;;5074065;28;20033;-82
2022/12/22 09:38:44;;;;;;;78.63;37.33;;;;;;;;;;5074865;28;20051;-82
2022/12/22 09:41:16;;;;;;;61.47;34.85;;;;;;;;;;5056959;28;20024;-83
2022/12/22 09:43:42;;;;;;;61.78;31.85;;;;;;;;;;5072151;28;20056;-82
2022/12/22 09:46:24;;;;;;;87.40;39.47;;;;;;;;;;5073335;28;20048;-83
2022/12/22 09:48:51;;;;;;;59.22;32.97;;;;;;;;;;5070549;28;20086;-82
2022/12/22 09:51:17;;;;;;;66.03;34.00;;;;;;;;;;5072434;28;20027;-82
2022/12/22 09:53:44;;;;;;;60.55;32.50;;;;;;;;;;5074394;28;20025;-81
2022/12/22 09:56:13;;;;;;;59.40;33.25;;;;;;;;;;5056529;28;20031;-82
2022/12/22 09:58:41;;;;;;;100.47;45.03;;;;;;;;;;5070243;28;20078;-82
2022/12/22 10:01:07;;;;;;;61.22;33.10;;;;;;;;;;5073741;28;20110;-74
2022/12/22 10:03:45;;;;;;;51.10;30.92;;;;;;;;;;5069588;28;20025;-82
2022/12/22 10:06:16;;;;;;;69.05;36.22;;;;;;;;;;5073497;28;20033;-82
2022/12/22 10:08:42;;;;;;;59.47;33.42;;;;;;;;;;5072426;28;20037;-80
2022/12/22 10:11:12;;;;;;;49.63;30.85;;;;;;;;;;5087111;28;20553;-80
2022/12/22 10:13:38;;;;;;;78.03;38.22;;;;;;;;;;5073641;28;20032;-80
2022/12/22 10:16:21;;;;;;;48.05;31.08;;;;;;;;;;5072514;28;20036;-79
2022/12/22 10:19:07;;;;;;;57.92;33.17;;;;;;;;;;5082210;28;20391;-80
2022/12/22 10:21:33;;;;;;;164.98;60.55;;;;;;;;;;5060549;28;20032;-79
2022/12/22 10:23:59;;;;;;;63.55;34.55;;;;;;;;;;5054635;28;20396;-76
2022/12/22 10:26:28;;;;;;;71.28;37.95;;;;;;;;;;5055729;28;20033;-80
2022/12/22 10:29:03;;;;;;;48.30;30.40;;;;;;;;;;5070938;28;20795;-79
2022/12/22 10:31:33;;;;;;;49.85;30.15;;;;;;;;;;5070794;28;20485;-83
2022/12/22 10:34:20;;;;;;;46.63;30.67;;;;;;;;;;5072517;28;20490;-80
2022/12/22 10:36:55;;;;;;;58.30;32.60;;;;;;;;;;5069556;28;20039;-79
2022/12/22 10:39:23;;;;;;;50.15;36.15;;;;;;;;;;5071288;28;20021;-83
2022/12/22 10:41:50;;;;;;;123.22;59.10;;;;;;;;;;5071425;28;20028;-83
2022/12/22 10:44:16;;;;;;;95.20;53.42;;;;;;;;;;5072129;28;20017;-80
2022/12/22 10:46:44;;;;;;;96.10;56.50;;;;;;;;;;5040304;28;20025;-84
2022/12/22 10:49:14;;;;;;;88.60;45.63;;;;;;;;;;5035427;28;20032;-81
2022/12/22 10:51:41;;;;;;;87.28;41.97;;;;;;;;;;5052166;28;20059;-80
2022/12/22 10:54:10;;;;;;;110.28;52.80;;;;;;;;;;5057259;28;20029;-81
2022/12/22 10:56:36;;;;;;;74.13;43.28;;;;;;;;;;5034846;28;20044;-81
2022/12/22 10:59:05;;;;;;;164.52;74.28;;;;;;;;;;5052849;28;20499;-78
2022/12/22 11:01:35;;;;;;;109.40;53.28;;;;;;;;;;5050386;28;20037;-81
2022/12/22 11:04:15;;;;;;;91.40;47.53;;;;;;;;;;5043691;28;20030;-83
2022/12/22 11:06:45;;;;;;;67.72;36.53;;;;;;;;;;5050569;28;20025;-87
2022/12/22 11:09:13;;;;;;;72.55;37.60;;;;;;;;;;5053340;28;20029;-83
2022/12/22 11:11:46;;;;;;;71.85;38.75;;;;;;;;;;5043891;28;20442;-85
2022/12/22 11:14:30;;;;;;;74.68;37.90;;;;;;;;;;5045557;28;20041;-83
2022/12/22 11:17:02;;;;;;;94.00;50.13;;;;;;;;;;5049727;28;20516;-80
2022/12/22 11:19:49;;;;;;;351.80;118.88;;;;;;;;;;5048972;28;20384;-82
2022/12/22 11:22:38;;;;;;;203.80;81.18;;;;;;;;;;5052139;28;20013;-84
2022/12/22 11:25:28;;;;;;;159.38;70.30;;;;;;;;;;5034827;28;20119;-80
2022/12/22 11:28:13;;;;;;;302.58;113.03;;;;;;;;;;5029302;28;20028;-80
2022/12/22 11:30:57;;;;;;;201.13;84.18;;;;;;;;;;5043131;28;20442;-85
2022/12/22 11:33:42;;;;;;;175.52;73.30;;;;;;;;;;5053480;28;20028;-83
2022/12/22 11:36:26;;;;;;;46.35;32.83;;;;;;;;;;5052783;28;20040;-76
2022/12/22 11:38:58;;;;;;;73.07;42.08;;;;;;;;;;5066893;28;20032;-84
2022/12/22 11:41:27;;;;;;;76.20;46.08;;;;;;;;;;5054093;28;20032;-86
2022/12/22 11:43:53;;;;;;;64.32;41.95;;;;;;;;;;5036966;28;20614;-83
2022/12/22 11:46:44;;;;;;;77.30;44.60;;;;;;;;;;5070070;28;20063;-78
2022/12/22 11:49:32;;;;;;;89.68;47.08;;;;;;;;;;5058735;28;20086;-81
2022/12/22 11:52:17;;;;;;;155.98;68.25;;;;;;;;;;5058243;28;20116;-83
2022/12/22 11:55:04;;;;;;;107.80;59.88;;;;;;;;;;5071285;28;20331;-85
2022/12/22 11:57:40;;;;;;;68.70;43.17;;;;;;;;;;5064474;28;20043;-83
2022/12/22 12:00:09;;;;;;;84.93;45.38;;;;;;;;;;5071109;28;20475;-85
2022/12/22 12:02:50;;;;;;;77.90;42.10;;;;;;;;;;5069048;28;20431;-86
2022/12/22 12:05:35;;;;;;;147.25;60.15;;;;;;;;;;5060381;28;20398;-83
2022/12/22 12:08:24;;;;;;;106.97;50.15;;;;;;;;;;5067354;28;20044;-82
2022/12/22 12:10:52;;;;;;;121.65;55.20;;;;;;;;;;5043265;28;20587;-85
2022/12/22 12:13:37;;;;;;;57.13;36.70;;;;;;;;;;5074661;28;20030;-83
2022/12/22 12:16:22;;;;;;;90.65;45.95;;;;;;;;;;5050851;28;20033;-83
2022/12/22 12:18:48;;;;;;;;;;;;;;;;;;5075723;28;20028;-73
2022/12/22 12:21:23;;;;;;;58.13;34.70;;;;;;;;;;5078413;28;19953;-82
2022/12/22 12:23:52;;;;;;;56.15;35.67;;;;;;;;;;5070123;28;20099;-84
2022/12/22 12:26:21;;;;;;;55.85;34.88;;;;;;;;;;5060508;28;20036;-82
2022/12/22 12:28:50;;;;;;;75.47;41.40;;;;;;;;;;5070654;28;20108;-82
2022/12/22 12:31:16;;;;;;;80.35;44.22;;;;;;;;;;5069797;28;20040;-82
2022/12/22 12:34:02;;;;;;;108.45;53.38;;;;;;;;;;5071894;28;20050;-84
2022/12/22 12:36:46;;;;;;;169.07;69.70;;;;;;;;;;5068304;28;20039;-84
2022/12/22 12:39:13;;;;;;;76.10;40.38;;;;;;;;;;5071108;28;20029;-83
2022/12/22 12:41:57;;;;;;;100.50;51.22;;;;;;;;;;5072271;28;20114;-85
2022/12/22 12:44:26;;;;;;;74.57;43.60;;;;;;;;;;5050822;28;20032;-83
2022/12/22 12:46:52;;;;;;;84.03;42.83;;;;;;;;;;5071741;28;20047;-82
2022/12/22 12:49:34;;;;;;;64.22;40.15;;;;;;;;;;5069749;28;20671;-82
2022/12/22 12:52:08;;;;;;;98.65;49.60;;;;;;;;;;5072098;28;20502;-83
2022/12/22 12:54:34;;;;;;;;;;;;;;;;;;5071412;28;20045;-82
2022/12/22 12:57:00;;;;;;;92.65;44.80;;;;;;;;;;5052282;28;19962;-83
2022/12/22 12:59:45;;;;;;;75.97;41.58;;;;;;;;;;5066256;28;20103;-82
2022/12/22 13:02:26;;;;;;;87.95;46.15;;;;;;;;;;5066951;28;20064;-83
2022/12/22 13:05:11;;;;;;;67.38;40.53;;;;;;;;;;5066878;28;20036;-83
2022/12/22 13:07:37;;;;;;;;;;;;;;;;;;5051308;28;20035;-83
2022/12/22 13:10:07;;;;;;;100.13;48.33;;;;;;;;;;5063327;28;19909;-82
2022/12/22 13:12:40;;;;;;;103.07;51.35;;;;;;;;;;5051943;28;20513;-84
2022/12/22 13:15:26;;;;;;;181.43;71.60;;;;;;;;;;5066083;28;20120;-83
2022/12/22 13:17:52;;;;;;;209.52;83.28;;;;;;;;;;5065500;28;20040;-84
2022/12/22 13:20:21;;;;;;;102.95;52.58;;;;;;;;;;5069083;28;20013;-84
2022/12/22 13:22:51;;;;;;;77.70;43.63;;;;;;;;;;5066086;28;20432;-82
2022/12/22 13:25:18;;;;;;;168.57;74.60;;;;;;;;;;5053063;28;20433;-84
2022/12/22 13:27:44;;;;;;;92.68;49.42;;;;;;;;;;5062549;28;20411;-83
2022/12/22 13:30:15;;;;;;;144.15;65.65;;;;;;;;;;5067418;28;20033;-80
2022/12/22 13:32:41;;;;;;;104.70;55.08;;;;;;;;;;5063589;28;20025;-82
2022/12/22 13:35:07;;;;;;;69.05;42.28;;;;;;;;;;5071342;28;20040;-81
2022/12/22 13:37:39;;;;;;;65.68;39.65;;;;;;;;;;5051178;28;20373;-81
2022/12/22 13:40:23;;;;;;;82.68;44.97;;;;;;;;;;5069558;28;20462;-82
2022/12/22 13:42:54;;;;;;;82.30;46.08;;;;;;;;;;5053071;28;20100;-83
2022/12/22 13:45:39;;;;;;;83.53;43.38;;;;;;;;;;5072094;28;20117;-82
2022/12/22 13:48:08;;;;;;;64.20;39.42;;;;;;;;;;5074097;28;20521;-83
2022/12/22 13:50:36;;;;;;;71.95;42.08;;;;;;;;;;5066969;28;20044;-85
2022/12/22 13:53:02;;;;;;;83.55;47.08;;;;;;;;;;5073123;28;20032;-84
2022/12/22 13:55:30;;;;;;;110.18;57.30;;;;;;;;;;5067600;28;20127;-86
2022/12/22 13:58:01;;;;;;;111.55;63.50;;;;;;;;;;5071392;28;20036;-83
2022/12/22 14:00:28;;;;;;;108.28;63.17;;;;;;;;;;5054994;28;20388;-85
2022/12/22 14:03:07;;;;;;;86.13;53.13;;;;;;;;;;5059791;28;20028;-85
2022/12/22 14:05:34;;;;;;;82.13;48.47;;;;;;;;;;5053700;28;20174;-84
2022/12/22 14:08:12;;;;;;;80.65;50.70;;;;;;;;;;5053489;28;20021;-85
2022/12/22 14:10:41;;;;;;;75.13;44.25;;;;;;;;;;5052924;28;20535;-84
2022/12/22 14:13:13;;;;;;;220.95;82.20;;;;;;;;;;5056477;28;20025;-87
2022/12/22 14:15:39;;;;;;;146.80;65.65;;;;;;;;;;5073430;28;20074;-86
2022/12/22 14:18:06;;;;;;;158.60;65.65;;;;;;;;;;5071021;28;20032;-84
2022/12/22 14:20:36;;;;;;;106.60;52.35;;;;;;;;;;5075262;28;20098;-86
2022/12/22 14:23:08;;;;;;;69.47;44.70;;;;;;;;;;5074801;28;20021;-85
2022/12/22 14:25:39;;;;;;;84.78;50.47;;;;;;;;;;5074327;28;20524;-81
2022/12/22 14:28:07;;;;;;;62.95;40.08;;;;;;;;;;5082167;28;20106;-85
2022/12/22 14:30:41;;;;;;;57.88;39.90;;;;;;;;;;5076188;28;20099;-82
2022/12/22 14:33:31;;;;;;;59.78;40.00;;;;;;;;;;5074601;28;20108;-83
2022/12/22 14:36:23;;;;;;;61.10;41.17;;;;;;;;;;5074713;28;20032;-84
2022/12/22 14:38:54;;;;;;;59.42;38.17;;;;;;;;;;5080173;28;20060;-83
2022/12/22 14:41:40;;;;;;;62.30;41.55;;;;;;;;;;5074026;28;20099;-82
2022/12/22 14:44:12;;;;;;;63.47;40.83;;;;;;;;;;5082391;28;20074;-83
2022/12/22 14:46:39;;;;;;;68.10;45.88;;;;;;;;;;5051299;28;20045;-84
2022/12/22 14:49:05;;;;;;;70.90;49.22;;;;;;;;;;5048765;28;20083;-83
2022/12/22 14:51:31;;;;;;;80.85;51.65;;;;;;;;;;5051894;28;20426;-83
2022/12/22 14:54:01;;;;;;;90.85;59.20;;;;;;;;;;5074666;28;20025;-84
2022/12/22 14:56:27;;;;;;;89.72;59.38;;;;;;;;;;5056418;28;20025;-84
2022/12/22 14:59:07;;;;;;;94.88;60.92;;;;;;;;;;5036563;28;20514;-86
2022/12/22 15:01:33;;;;;;;92.25;59.17;;;;;;;;;;5054411;28;20017;-82
2022/12/22 15:04:05;;;;;;;88.63;56.72;;;;;;;;;;5054119;28;20054;-85
2022/12/22 15:06:38;;;;;;;105.93;71.65;;;;;;;;;;5036468;28;20472;-85
2022/12/22 15:09:05;;;;;;;154.77;100.55;;;;;;;;;;5054465;28;20017;-83
2022/12/22 15:11:32;;;;;;;154.60;109.57;;;;;;;;;;5034978;28;20135;-82
2022/12/22 15:13:58;;;;;;;106.90;73.25;;;;;;;;;;5073360;28;20104;-81
2022/12/22 15:16:24;;;;;;;88.15;59.22;;;;;;;;;;5074228;28;20391;-80
2022/12/22 15:18:51;;;;;;;111.13;72.25;;;;;;;;;;5074625;28;20487;-82
2022/12/22 15:21:18;;;;;;;131.73;88.45;;;;;;;;;;5066875;28;20036;-83
2022/12/22 15:23:44;;;;;;;123.68;81.85;;;;;;;;;;5053913;28;20036;-82
2022/12/22 15:26:10;;;;;;;95.75;65.00;;;;;;;;;;5053691;28;20055;-83
2022/12/22 15:28:37;;;;;;;96.35;65.63;;;;;;;;;;5036143;28;20029;-83
2022/12/22 15:31:04;;;;;;;134.43;93.43;;;;;;;;;;5053705;28;20025;-83
2022/12/22 15:33:30;;;;;;;117.47;79.30;;;;;;;;;;5053656;28;20025;-84
2022/12/22 15:35:56;;;;;;;171.13;117.32;;;;;;;;;;5053534;28;20132;-84
2022/12/22 15:38:23;;;;;;;196.50;127.82;;;;;;;;;;5053405;28;20400;-84
2022/12/22 15:40:50;;;;;;;169.10;113.75;;;;;;;;;;5035795;28;20112;-82
2022/12/22 15:43:16;;;;;;;227.93;150.82;;;;;;;;;;5054649;28;20029;-82
2022/12/22 15:45:43;;;;;;;159.30;105.60;;;;;;;;;;5077860;28;20111;-83
2022/12/22 15:48:11;;;;;;;127.55;84.22;;;;;;;;;;5072005;28;20024;-83
2022/12/22 15:50:40;;;;;;;156.45;105.35;;;;;;;;;;5058507;28;20057;-84
2022/12/22 15:53:10;;;;;;;88.55;60.80;;;;;;;;;;5073080;28;20036;-84
2022/12/22 15:55:40;;;;;;;72.85;51.83;;;;;;;;;;5071573;28;20059;-85
2022/12/22 15:58:10;;;;;;;76.15;47.33;;;;;;;;;;5055285;28;20028;-81
2022/12/22 16:00:36;;;;;;;77.93;50.72;;;;;;;;;;5072095;28;20031;-83
2022/12/22 16:03:13;;;;;;;81.75;53.35;;;;;;;;;;5055140;28;20403;-82
2022/12/22 16:05:44;;;;;;;83.65;55.80;;;;;;;;;;5055319;28;20134;-82
2022/12/22 16:08:14;;;;;;;101.00;63.95;;;;;;;;;;5077157;28;20040;-83
2022/12/22 16:10:40;;;;;;;96.18;61.20;;;;;;;;;;5074755;28;20024;-83
2022/12/22 16:13:09;;;;;;;101.75;63.22;;;;;;;;;;5074044;28;20475;-83
2022/12/22 16:15:35;;;;;;;103.07;67.00;;;;;;;;;;5054438;28;20487;-82
2022/12/22 16:18:01;;;;;;;81.57;55.70;;;;;;;;;;5057765;28;20051;-83
2022/12/22 16:20:29;;;;;;;85.47;58.70;;;;;;;;;;5072646;28;20099;-82
2022/12/22 16:22:55;;;;;;;91.32;61.60;;;;;;;;;;5072929;28;20028;-82
2022/12/22 16:25:24;;;;;;;95.53;64.47;;;;;;;;;;5071659;28;20052;-84
2022/12/22 16:27:50;;;;;;;96.38;63.88;;;;;;;;;;5071669;28;20090;-84
2022/12/22 16:30:22;;;;;;;103.57;67.10;;;;;;;;;;5071955;28;20108;-85
2022/12/22 16:32:48;;;;;;;109.90;73.55;;;;;;;;;;5072951;28;20020;-84
2022/12/22 16:35:16;;;;;;;111.75;73.20;;;;;;;;;;5072670;28;20032;-85
2022/12/22 16:37:43;;;;;;;90.97;59.60;;;;;;;;;;5072798;28;20036;-83
2022/12/22 16:40:09;;;;;;;84.95;54.45;;;;;;;;;;5071619;28;20024;-85
2022/12/22 16:42:36;;;;;;;74.82;51.17;;;;;;;;;;5072852;28;20016;-85
2022/12/22 16:45:03;;;;;;;73.53;48.90;;;;;;;;;;5073316;28;20083;-84
2022/12/22 16:47:48;;;;;;;79.75;55.05;;;;;;;;;;5072454;28;20550;-85
2022/12/22 16:50:22;;;;;;;74.63;48.22;;;;;;;;;;5073812;28;20028;-83
2022/12/22 16:52:48;;;;;;;59.92;38.03;;;;;;;;;;5054633;28;20040;-83
2022/12/22 16:55:19;;;;;;;80.40;51.90;;;;;;;;;;5054347;28;20024;-82
2022/12/22 16:57:45;;;;;;;95.75;59.83;;;;;;;;;;5073411;28;20028;-83
2022/12/22 17:00:30;;;;;;;87.70;55.20;;;;;;;;;;5090504;28;20032;-83
2022/12/22 17:02:56;;;;;;;88.63;57.75;;;;;;;;;;5072150;28;20028;-80
2022/12/22 17:05:30;;;;;;;85.18;54.28;;;;;;;;;;5072422;28;20035;-81
2022/12/22 17:07:58;;;;;;;83.20;52.03;;;;;;;;;;5072124;28;20361;-85
2022/12/22 17:10:24;;;;;;;87.05;55.63;;;;;;;;;;5089689;28;20466;-85
2022/12/22 17:12:51;;;;;;;77.93;49.75;;;;;;;;;;5092427;28;20090;-83
2022/12/22 17:15:20;;;;;;;77.40;49.53;;;;;;;;;;5086666;28;20062;-84
2022/12/22 17:17:46;;;;;;;71.25;46.05;;;;;;;;;;5072200;28;20029;-83
2022/12/22 17:20:13;;;;;;;79.70;50.60;;;;;;;;;;5072273;28;20028;-82
2022/12/22 17:22:40;;;;;;;84.65;55.22;;;;;;;;;;5072182;28;20103;-81
2022/12/22 17:25:07;;;;;;;79.10;49.85;;;;;;;;;;5071793;28;20387;-84
2022/12/22 17:27:34;;;;;;;71.05;47.20;;;;;;;;;;5072273;28;20375;-83
2022/12/22 17:30:21;;;;;;;80.25;49.42;;;;;;;;;;5075997;28;20012;-86
2022/12/22 17:32:53;;;;;;;80.70;49.17;;;;;;;;;;5057466;28;20047;-84
2022/12/22 17:35:20;;;;;;;86.45;53.83;;;;;;;;;;5057261;28;20514;-84
2022/12/22 17:38:07;;;;;;;93.00;53.70;;;;;;;;;;5076125;28;20020;-84
2022/12/22 17:40:33;;;;;;;102.30;61.47;;;;;;;;;;5075407;28;20032;-84
2022/12/22 17:42:59;;;;;;;110.45;71.07;;;;;;;;;;5058061;28;20016;-84
2022/12/22 17:45:25;;;;;;;151.55;97.85;;;;;;;;;;5047221;28;20048;-84
2022/12/22 17:47:51;;;;;;;134.65;88.30;;;;;;;;;;5055748;28;20024;-83
2022/12/22 17:50:19;;;;;;;124.07;81.68;;;;;;;;;;5055475;28;20055;-84
2022/12/22 17:53:19;;;;;;;138.38;89.47;;;;;;;;;;5061254;28;20102;-84
2022/12/22 17:55:52;;;;;;;162.95;107.15;;;;;;;;;;5055231;28;20499;-84
2022/12/22 17:58:25;;;;;;;136.27;87.65;;;;;;;;;;5055935;28;20025;-84
2022/12/22 18:01:13;;;;;;;120.60;79.03;;;;;;;;;;5055532;28;20032;-84
2022/12/22 18:03:51;;;;;;;118.40;76.15;;;;;;;;;;5049670;28;20072;-85
2022/12/22 18:06:18;;;;;;;116.88;77.45;;;;;;;;;;5075462;28;20013;-84
2022/12/22 18:08:52;;;;;;;119.75;77.97;;;;;;;;;;5057398;28;20020;-84